createdAt,value
2022-08-17T00:01:31.438Z,67.63
2022-08-17T00:04:10.888Z,67.91
2022-08-17T00:06:38.434Z,68.11
2022-08-17T00:09:05.643Z,68.92
2022-08-17T00:11:38.345Z,69.80
2022-08-17T00:14:13.684Z,68.80
2022-08-17T00:16:55.376Z,67.56
2022-08-17T00:19:25.834Z,68.17
2022-08-17T00:22:32.277Z,69.10
2022-08-17T00:24:42.876Z,67.25
2022-08-17T00:27:09.393Z,68.53
2022-08-17T00:29:35.856Z,68.69
2022-08-17T00:33:16.006Z,70.07
2022-08-17T00:34:49.861Z,69.84
2022-08-17T00:37:16.628Z,69.29
2022-08-17T00:39:43.180Z,68.53
2022-08-17T00:42:18.564Z,69.58
2022-08-17T00:44:46.028Z,70.15
2022-08-17T00:47:12.508Z,69.85
2022-08-17T00:49:38.988Z,69.54
2022-08-17T00:52:15.311Z,68.91
2022-08-17T00:54:45.000Z,67.86
2022-08-17T00:57:18.490Z,70.22
2022-08-17T01:00:01.513Z,71.10
2022-08-17T01:02:34.398Z,70.75
2022-08-17T01:05:12.527Z,71.79
2022-08-17T01:07:39.285Z,71.09
2022-08-17T01:10:58.881Z,72.10
2022-08-17T01:12:58.065Z,71.53
2022-08-17T01:15:24.613Z,71.87
2022-08-17T01:17:51.147Z,72.24
2022-08-17T01:20:17.828Z,71.96
2022-08-17T01:22:44.426Z,72.65
2022-08-17T01:25:12.579Z,72.07
2022-08-17T01:27:40.545Z,73.05
2022-08-17T01:30:57.108Z,72.06
2022-08-17T01:32:56.857Z,72.56
2022-08-17T01:35:23.443Z,72.14
2022-08-17T01:37:50.005Z,73.56
2022-08-17T01:40:25.550Z,72.91
2022-08-17T01:42:58.496Z,74.11
2022-08-17T01:45:30.374Z,73.86
2022-08-17T01:47:56.983Z,75.12
2022-08-17T01:50:30.581Z,75.21
2022-08-17T01:53:04.174Z,75.36
2022-08-17T01:55:40.882Z,75.59
2022-08-17T01:58:09.706Z,75.94
2022-08-17T02:00:59.797Z,76.24
2022-08-17T02:03:25.220Z,77.35
2022-08-17T02:05:53.190Z,76.81
2022-08-17T02:08:21.408Z,77.75
2022-08-17T02:11:11.611Z,77.21
2022-08-17T02:13:38.343Z,77.97
2022-08-17T02:16:05.515Z,77.86
2022-08-17T02:18:32.111Z,77.29
2022-08-17T02:20:58.686Z,78.07
2022-08-17T02:23:27.765Z,78.57
2022-08-17T02:25:57.642Z,78.15
2022-08-17T02:28:24.111Z,79.13
2022-08-17T02:31:00.690Z,79.28
2022-08-17T02:33:43.067Z,79.66
2022-08-17T02:36:12.143Z,78.86
2022-08-17T02:38:40.585Z,79.54
2022-08-17T02:41:07.921Z,79.46
2022-08-17T02:43:34.897Z,79.23
2022-08-17T02:46:01.485Z,80.09
2022-08-17T02:48:31.611Z,80.44
2022-08-17T02:50:59.815Z,79.81
2022-08-17T02:53:26.683Z,81.15
2022-08-17T02:55:53.636Z,81.25
2022-08-17T02:58:34.332Z,81.14
2022-08-17T03:01:03.667Z,81.21
2022-08-17T03:03:30.209Z,80.38
2022-08-17T03:05:56.682Z,80.79
2022-08-17T03:08:23.382Z,80.67
2022-08-17T03:10:50.427Z,82.03
2022-08-17T03:13:17.283Z,82.17
2022-08-17T03:15:45.366Z,82.91
2022-08-17T03:18:21.929Z,82.26
2022-08-17T03:20:57.528Z,82.33
2022-08-17T03:23:25.583Z,82.96
2022-08-17T03:25:53.889Z,83.65
2022-08-17T03:28:21.740Z,82.56
2022-08-17T03:30:48.931Z,82.82
2022-08-17T03:33:16.190Z,83.17
2022-08-17T03:35:43.109Z,83.27
2022-08-17T03:38:11.293Z,83.97
2022-08-17T03:40:56.624Z,83.76
2022-08-17T03:43:27.638Z,83.53
2022-08-17T03:46:27.689Z,83.74
2022-08-17T03:49:14.163Z,83.47
2022-08-17T03:51:59.105Z,83.47
2022-08-17T03:54:43.863Z,83.52
2022-08-17T03:57:11.094Z,83.61
2022-08-17T03:59:38.636Z,82.99
2022-08-17T04:02:27.600Z,83.34
2022-08-17T04:04:54.590Z,82.98
2022-08-17T04:07:23.736Z,83.13
2022-08-17T04:09:50.720Z,83.96
2022-08-17T04:12:19.526Z,83.72
2022-08-17T04:14:52.162Z,82.86
2022-08-17T04:17:26.977Z,83.75
2022-08-17T04:19:54.801Z,82.94
2022-08-17T04:22:32.656Z,83.75
2022-08-17T04:25:17.715Z,83.28
2022-08-17T04:27:44.279Z,82.67
2022-08-17T04:30:11.910Z,82.88
2022-08-17T04:33:06.131Z,83.00
2022-08-17T04:35:46.244Z,82.86
2022-08-17T04:38:17.492Z,83.57
2022-08-17T04:41:04.036Z,84.30
2022-08-17T04:43:32.554Z,84.76
2022-08-17T04:46:02.157Z,85.16
2022-08-17T04:48:36.574Z,85.51
2022-08-17T04:51:13.617Z,84.37
2022-08-17T04:53:44.108Z,84.22
2022-08-17T04:56:16.577Z,84.51
2022-08-17T04:58:50.338Z,85.06
2022-08-17T05:01:24.090Z,85.29
2022-08-17T05:03:53.834Z,84.34
2022-08-17T05:06:20.968Z,85.01
2022-08-17T05:08:47.632Z,85.27
2022-08-17T05:11:14.926Z,85.56
2022-08-17T05:13:41.457Z,85.55
2022-08-17T05:16:09.091Z,85.29
2022-08-17T05:18:37.165Z,85.53
2022-08-17T05:21:03.787Z,86.01
2022-08-17T05:23:41.769Z,85.73
2022-08-17T05:26:26.457Z,86.59
2022-08-17T05:29:02.478Z,86.50
2022-08-17T05:31:30.748Z,85.05
2022-08-17T05:33:58.153Z,86.06
2022-08-17T05:36:42.080Z,86.27
2022-08-17T05:39:16.725Z,85.48
2022-08-17T05:41:45.408Z,85.75
2022-08-17T05:44:11.905Z,83.56
2022-08-17T05:46:43.416Z,84.71
2022-08-17T05:49:22.476Z,83.63
2022-08-17T05:52:04.187Z,83.81
2022-08-17T05:54:57.046Z,84.72
2022-08-17T05:57:56.267Z,84.76
2022-08-17T06:00:31.381Z,84.32
2022-08-17T06:03:02.738Z,84.29
2022-08-17T06:05:38.313Z,86.22
2022-08-17T06:08:10.980Z,84.46
2022-08-17T06:11:02.580Z,83.64
2022-08-17T06:13:53.337Z,79.50
2022-08-17T06:16:34.066Z,79.15
2022-08-17T06:19:12.071Z,79.56
2022-08-17T06:21:43.550Z,76.94
2022-08-17T06:24:35.878Z,75.40
2022-08-17T06:27:20.284Z,75.97
2022-08-17T06:29:46.745Z,75.41
2022-08-17T06:32:14.327Z,74.06
2022-08-17T06:34:43.618Z,74.38
2022-08-17T06:37:10.127Z,75.14
2022-08-17T06:40:01.515Z,75.72
2022-08-17T06:42:54.982Z,74.81
2022-08-17T06:45:35.927Z,75.19
2022-08-17T06:48:12.888Z,75.71
2022-08-17T06:50:46.533Z,75.61
2022-08-17T06:53:23.411Z,76.20
2022-08-17T06:56:06.149Z,75.91
2022-08-17T06:58:35.625Z,74.37
2022-08-17T07:01:09.141Z,72.69
2022-08-17T07:03:46.066Z,73.42
2022-08-17T07:06:19.792Z,72.69
2022-08-17T07:49:56.800Z,73.11
2022-08-17T07:52:51.439Z,72.55
2022-08-17T07:55:31.076Z,72.97
2022-08-17T07:57:59.457Z,72.93
2022-08-17T08:00:32.102Z,72.26
2022-08-17T08:03:19.176Z,72.88
2022-08-17T08:05:57.565Z,72.67
2022-08-17T08:08:37.333Z,73.24
2022-08-17T08:11:17.788Z,74.36
2022-08-17T08:13:45.647Z,73.82
2022-08-17T08:16:15.138Z,74.18
2022-08-17T08:18:55.842Z,74.14
2022-08-17T08:21:29.174Z,74.39
2022-08-17T08:24:00.320Z,74.64
2022-08-17T08:26:32.563Z,73.69
2022-08-17T08:29:23.651Z,72.70
2022-08-17T08:31:53.366Z,74.10
2022-08-17T08:35:00.940Z,74.02
2022-08-17T08:37:57.706Z,73.49
2022-08-17T08:41:11.917Z,74.35
2022-08-17T08:44:17.080Z,73.61
2022-08-17T08:46:59.870Z,73.16
2022-08-17T08:50:05.046Z,73.71
2022-08-17T08:52:50.373Z,73.72
2022-08-17T08:55:26.045Z,74.32
2022-08-17T08:58:42.019Z,75.62
2022-08-17T09:01:39.372Z,75.83
2022-08-17T09:04:50.198Z,77.08
2022-08-17T09:07:50.355Z,77.22
2022-08-17T09:10:30.593Z,76.36
2022-08-17T09:13:28.676Z,76.75
2022-08-17T09:16:19.570Z,76.97
2022-08-17T09:19:00.123Z,76.17
2022-08-17T09:21:54.474Z,76.54
2022-08-17T09:24:48.888Z,76.19
2022-08-17T09:27:19.575Z,75.48
2022-08-17T09:29:50.322Z,75.75
2022-08-17T09:32:25.408Z,76.21
2022-08-17T09:34:59.949Z,76.01
2022-08-17T09:37:29.453Z,77.54
2022-08-17T09:40:14.165Z,76.13
2022-08-17T09:43:12.596Z,76.58
2022-08-17T09:45:57.103Z,77.06
2022-08-17T09:48:35.750Z,77.37
2022-08-17T09:51:24.439Z,76.21
2022-08-17T09:53:51.471Z,76.85
2022-08-17T09:57:06.029Z,76.69
2022-08-17T09:59:54.976Z,76.90
2022-08-17T10:02:43.276Z,76.32
2022-08-17T10:05:18.023Z,75.11
2022-08-17T10:07:57.351Z,76.97
2022-08-17T10:10:39.910Z,77.94
2022-08-17T10:13:39.505Z,76.91
2022-08-17T10:16:38.224Z,76.53
2022-08-17T10:19:30.669Z,76.88
2022-08-17T10:22:35.064Z,76.74
2022-08-17T10:25:24.864Z,77.59
2022-08-17T10:28:05.101Z,77.38
2022-08-17T10:30:34.951Z,76.29
2022-08-17T10:33:15.908Z,77.74
2022-08-17T10:35:57.496Z,77.35
2022-08-17T10:38:30.265Z,77.02
2022-08-17T10:40:59.587Z,76.80
2022-08-17T10:44:37.505Z,77.34
2022-08-17T10:47:01.416Z,77.64
2022-08-17T10:49:39.188Z,78.01
2022-08-17T10:52:20.616Z,78.23
2022-08-17T10:54:57.933Z,78.60
2022-08-17T10:57:31.718Z,78.40
2022-08-17T11:00:00.402Z,79.17
2022-08-17T11:02:40.647Z,78.94
2022-08-17T11:05:44.071Z,79.54
2022-08-17T11:08:32.556Z,79.85
2022-08-17T11:11:38.402Z,79.98
2022-08-17T11:14:42.589Z,79.42
2022-08-17T11:17:21.773Z,79.77
2022-08-17T11:20:00.476Z,80.30
2022-08-17T11:23:04.530Z,80.06
2022-08-17T11:25:50.901Z,80.49
2022-08-17T11:28:19.682Z,79.74
2022-08-17T11:30:54.968Z,79.56
2022-08-17T11:33:34.045Z,78.64
2022-08-17T11:36:18.153Z,79.82
2022-08-17T11:38:52.448Z,79.09
2022-08-17T11:41:27.366Z,77.73
2022-08-17T11:44:31.100Z,77.27
2022-08-17T11:47:28.369Z,77.73
2022-08-17T11:50:45.305Z,78.91
2022-08-17T11:53:39.567Z,77.51
2022-08-17T11:56:28.964Z,77.03
2022-08-17T11:58:56.333Z,77.46
2022-08-17T12:01:22.718Z,76.51
2022-08-17T12:03:58.838Z,77.06
2022-08-17T12:06:30.520Z,77.74
2022-08-17T12:09:10.480Z,77.65
2022-08-17T12:12:12.554Z,77.46
2022-08-17T12:15:09.459Z,77.04
2022-08-17T12:17:40.794Z,76.85
2022-08-17T12:20:39.986Z,77.50
2022-08-17T12:23:25.576Z,77.48
2022-08-17T12:26:07.206Z,77.34
2022-08-17T12:28:38.702Z,76.52
2022-08-17T12:31:21.994Z,77.09
2022-08-17T12:33:49.966Z,76.69
2022-08-17T12:36:25.207Z,76.71
2022-08-17T12:39:13.697Z,77.45
2022-08-17T12:41:47.507Z,75.19
2022-08-17T12:44:29.272Z,73.45
2022-08-17T12:47:21.825Z,72.63
2022-08-17T12:49:52.219Z,72.93
2022-08-17T12:52:32.791Z,72.02
2022-08-17T12:55:06.883Z,72.16
2022-08-17T12:57:43.768Z,73.19
2022-08-17T13:00:37.949Z,73.63
2022-08-17T13:03:07.730Z,73.70
2022-08-17T13:05:53.582Z,74.74
2022-08-17T13:08:26.053Z,74.63
2022-08-17T13:11:02.896Z,75.86
2022-08-17T13:13:32.627Z,77.06
2022-08-17T13:16:03.069Z,77.72
2022-08-17T13:18:46.561Z,76.69
2022-08-17T13:21:19.390Z,76.46
2022-08-17T13:24:04.255Z,76.12
2022-08-17T13:26:35.644Z,75.74
2022-08-17T13:29:06.243Z,75.38
2022-08-17T13:31:51.976Z,77.03
2022-08-17T13:34:25.459Z,77.52
2022-08-17T13:37:19.027Z,75.08
2022-08-17T13:39:48.288Z,75.98
2022-08-17T13:42:33.520Z,75.10
2022-08-17T13:45:36.483Z,72.54
2022-08-17T13:48:23.974Z,73.10
2022-08-17T13:50:56.684Z,74.59
2022-08-17T13:53:28.250Z,76.99
2022-08-17T13:56:33.489Z,76.20
2022-08-17T13:59:04.492Z,79.06
2022-08-17T14:01:39.407Z,79.41
2022-08-17T14:04:09.258Z,77.90
2022-08-17T14:06:54.128Z,77.48
2022-08-17T14:09:26.167Z,78.63
2022-08-17T14:11:55.424Z,77.05
2022-08-17T14:14:23.239Z,77.63
2022-08-17T14:16:51.190Z,78.84
2022-08-17T14:19:18.118Z,79.15
2022-08-17T14:21:46.449Z,78.37
2022-08-17T14:24:20.175Z,76.59
2022-08-17T14:26:46.794Z,78.40
2022-08-17T14:29:15.579Z,78.88
2022-08-17T14:31:42.455Z,79.24
2022-08-17T14:34:15.425Z,78.50
2022-08-17T14:36:48.286Z,79.10
2022-08-17T14:39:16.884Z,79.70
2022-08-17T14:41:43.647Z,79.00
2022-08-17T14:44:13.445Z,79.67
2022-08-17T14:46:41.742Z,79.74
2022-08-17T14:49:11.809Z,79.26
2022-08-17T14:51:43.515Z,80.12
2022-08-17T14:54:11.491Z,78.50
2022-08-17T14:57:23.234Z,76.72
2022-08-17T14:59:44.776Z,76.51
2022-08-17T15:02:11.905Z,78.64
2022-08-17T15:04:43.413Z,77.71
2022-08-17T15:07:12.144Z,76.62
2022-08-17T15:09:39.027Z,77.06
2022-08-17T15:12:06.679Z,76.73
2022-08-17T15:14:36.540Z,77.32
2022-08-17T15:17:03.933Z,74.72
2022-08-17T15:19:30.539Z,75.55
2022-08-17T15:21:57.128Z,76.56
2022-08-17T15:24:23.601Z,75.93
2022-08-17T15:26:50.146Z,75.14
2022-08-17T15:29:16.642Z,75.33
2022-08-17T15:31:43.276Z,74.12
2022-08-17T15:34:09.805Z,74.01
2022-08-17T15:36:37.013Z,74.49
2022-08-17T15:39:05.387Z,75.95
2022-08-17T15:41:32.467Z,74.63
2022-08-17T15:43:59.035Z,75.19
2022-08-17T15:46:26.493Z,75.06
2022-08-17T15:48:58.959Z,75.38
2022-08-17T15:51:34.768Z,74.30
2022-08-17T15:54:18.750Z,74.91
2022-08-17T15:56:48.766Z,73.93
2022-08-17T15:59:15.384Z,74.08
2022-08-17T16:03:13.251Z,72.97
2022-08-17T16:04:30.675Z,73.26
2022-08-17T16:06:58.752Z,73.17
2022-08-17T16:09:25.258Z,74.38
2022-08-17T16:11:51.903Z,75.47
2022-08-17T16:14:22.339Z,75.30
2022-08-17T16:16:50.606Z,75.90
2022-08-17T16:19:17.086Z,76.38
2022-08-17T16:21:43.627Z,76.01
2022-08-17T16:24:13.718Z,75.79
2022-08-17T16:26:42.425Z,74.71
2022-08-17T16:29:09.042Z,75.78
2022-08-17T16:31:37.535Z,73.51
2022-08-17T16:34:17.411Z,71.61
2022-08-17T16:36:54.996Z,73.19
2022-08-17T16:39:29.022Z,73.42
2022-08-17T16:41:56.514Z,71.93
2022-08-17T16:44:24.026Z,73.53
2022-08-17T16:46:50.709Z,72.85
2022-08-17T16:49:35.315Z,72.23
2022-08-17T16:52:03.912Z,72.60
2022-08-17T16:54:30.404Z,73.02
2022-08-17T16:56:56.980Z,73.69
2022-08-17T16:59:30.866Z,73.68
2022-08-17T17:02:04.747Z,72.22
2022-08-17T17:04:35.153Z,77.04
2022-08-17T17:07:42.656Z,76.45
2022-08-17T17:10:22.983Z,77.49
2022-08-17T17:13:03.781Z,75.76
2022-08-17T17:15:47.217Z,75.64
2022-08-17T17:18:15.730Z,75.59
2022-08-17T17:20:58.731Z,74.95
2022-08-17T17:23:48.285Z,74.22
2022-08-17T17:26:34.258Z,74.08
2022-08-17T17:29:05.126Z,74.10
2022-08-17T17:31:50.962Z,73.37
2022-08-17T17:34:18.404Z,74.11
2022-08-17T17:36:52.043Z,73.59
2022-08-17T17:39:44.152Z,74.98
2022-08-17T17:42:16.625Z,73.97
2022-08-17T17:45:03.912Z,73.61
2022-08-17T17:47:31.767Z,74.35
2022-08-17T17:50:01.353Z,74.75
2022-08-17T17:52:46.256Z,77.30
2022-08-17T17:55:15.658Z,73.72
2022-08-17T17:58:24.425Z,74.17
2022-08-17T18:01:09.683Z,73.79
2022-08-17T18:03:42.038Z,76.32
2022-08-17T18:06:10.323Z,77.39
2022-08-17T18:09:03.658Z,76.60
2022-08-17T18:11:54.139Z,74.96
2022-08-17T18:14:35.484Z,76.42
2022-08-17T18:17:02.241Z,77.60
2022-08-17T18:19:30.874Z,76.18
2022-08-17T18:22:13.132Z,77.89
2022-08-17T18:24:44.798Z,77.16
2022-08-17T18:27:23.356Z,78.99
2022-08-17T18:29:53.387Z,76.96
2022-08-17T18:32:34.495Z,78.25
2022-08-17T18:35:16.278Z,78.58
2022-08-17T18:37:51.440Z,80.17
2022-08-17T18:40:18.514Z,80.39
2022-08-17T18:42:56.029Z,80.03
2022-08-17T18:45:42.508Z,82.22
2022-08-17T18:48:27.520Z,79.63
2022-08-17T18:51:01.243Z,82.06
2022-08-17T18:53:34.497Z,82.44
2022-08-17T18:56:40.965Z,82.50
2022-08-17T18:59:23.614Z,82.47
2022-08-17T19:01:59.199Z,83.68
2022-08-17T19:04:32.778Z,84.16
2022-08-17T19:07:04.405Z,83.86
2022-08-17T19:09:36.024Z,84.27
2022-08-17T19:12:08.109Z,83.20
2022-08-17T19:14:35.816Z,84.39
2022-08-17T19:17:30.183Z,84.82
2022-08-17T19:20:17.588Z,84.31
2022-08-17T19:22:46.987Z,84.95
2022-08-17T19:25:23.156Z,85.52
2022-08-17T19:28:03.007Z,85.83
2022-08-17T19:30:30.278Z,86.01
2022-08-17T19:32:58.367Z,85.54
2022-08-17T19:35:34.115Z,85.41
2022-08-17T19:38:18.939Z,86.44
2022-08-17T19:41:00.675Z,86.35
2022-08-17T19:43:55.546Z,87.54
2022-08-17T19:46:26.089Z,88.79
2022-08-17T19:49:03.566Z,89.44
2022-08-17T19:51:46.175Z,89.40
2022-08-17T19:54:25.523Z,89.23
2022-08-17T19:57:01.698Z,89.86
2022-08-17T19:59:51.397Z,90.32
2022-08-17T20:02:37.458Z,89.31
2022-08-17T20:05:18.932Z,89.56
2022-08-17T20:08:00.572Z,89.74
2022-08-17T20:10:38.554Z,89.96
2022-08-17T20:13:14.990Z,90.56
2022-08-17T20:15:43.810Z,91.07
2022-08-17T20:18:50.796Z,91.39
2022-08-17T20:21:39.131Z,91.30
2022-08-17T20:24:44.758Z,91.02
2022-08-17T20:27:47.215Z,90.95
2022-08-17T20:30:40.779Z,90.79
2022-08-17T20:33:23.232Z,90.95
2022-08-17T20:36:11.912Z,93.67
2022-08-17T20:38:46.361Z,94.47
2022-08-17T20:41:17.131Z,94.48
2022-08-17T20:43:50.914Z,95.33
2022-08-17T20:46:35.607Z,95.10
2022-08-17T20:49:08.267Z,94.33
2022-08-17T20:52:02.537Z,94.48
2022-08-17T20:54:38.536Z,94.59
2022-08-17T20:57:13.723Z,93.93
2022-08-17T20:59:43.461Z,94.46
2022-08-17T21:02:19.943Z,93.90
2022-08-17T21:04:47.261Z,94.73
2022-08-17T21:07:48.550Z,93.63
2022-08-17T21:10:26.057Z,93.28
2022-08-17T21:13:00.115Z,93.64
2022-08-17T21:15:42.915Z,93.23
2022-08-17T21:18:27.985Z,95.09
2022-08-17T21:21:16.954Z,96.22
2022-08-17T21:23:52.892Z,95.18
2022-08-17T21:27:18.108Z,95.91
2022-08-17T21:30:10.129Z,96.15
2022-08-17T21:32:40.397Z,97.22
2022-08-17T21:35:12.344Z,97.15
2022-08-17T21:37:39.135Z,96.79
2022-08-17T21:40:17.975Z,96.94
2022-08-17T21:43:20.028Z,96.16
2022-08-17T21:45:55.698Z,96.23
2022-08-17T21:48:24.961Z,96.23
2022-08-17T21:51:03.713Z,96.02
2022-08-17T21:53:39.305Z,96.72
2022-08-17T21:56:07.254Z,96.69
2022-08-17T21:58:40.004Z,96.42
2022-08-17T22:01:17.195Z,96.74
2022-08-17T22:03:46.869Z,97.11
2022-08-17T22:06:56.658Z,96.81
2022-08-17T22:09:32.747Z,97.27
2022-08-17T22:12:05.310Z,96.87
2022-08-17T22:14:53.118Z,97.03
2022-08-17T22:17:25.050Z,97.15
2022-08-17T22:20:14.428Z,96.85
2022-08-17T22:23:08.573Z,97.22
2022-08-17T22:25:38.156Z,97.55
2022-08-17T22:28:08.186Z,97.90
2022-08-17T22:30:41.085Z,98.10
2022-08-17T22:33:36.416Z,98.53
2022-08-17T22:36:24.673Z,97.83
2022-08-17T22:38:58.131Z,97.38
2022-08-17T22:41:24.555Z,98.92
2022-08-17T22:43:52.415Z,98.92
2022-08-17T22:46:23.818Z,100.00
2022-08-17T22:48:54.925Z,100.00
2022-08-17T22:51:26.215Z,100.00
2022-08-17T22:54:15.313Z,100.00
2022-08-17T22:57:18.617Z,100.00
2022-08-17T22:59:49.342Z,100.00
2022-08-17T23:02:23.867Z,99.41
2022-08-17T23:04:54.347Z,100.00
2022-08-17T23:07:22.853Z,100.00
2022-08-17T23:09:51.047Z,100.00
2022-08-17T23:12:26.316Z,100.00
2022-08-17T23:15:00.488Z,100.00
2022-08-17T23:17:37.197Z,100.00
2022-08-17T23:20:08.399Z,100.00
2022-08-17T23:22:37.942Z,100.00
2022-08-17T23:25:27.043Z,100.00
2022-08-17T23:27:54.440Z,100.00
2022-08-17T23:30:28.505Z,100.00
2022-08-17T23:32:56.513Z,99.13
2022-08-17T23:35:39.683Z,99.64
2022-08-17T23:38:09.463Z,100.00
2022-08-17T23:40:36.248Z,100.00
2022-08-17T23:43:11.509Z,100.00
2022-08-17T23:45:59.589Z,100.00
2022-08-17T23:59:48.715Z,100.00
